Time;durP1;ratioP1;P1;durP2;ratioP2;P2;SDS_P1;SDS_P2;PMS_P1;PMS_P2;Temp;Humidity;BMP_temperature;BMP_pressure;BME280_temperature;BME280_humidity;BME280_pressure;Samples;Min_cycle;Max_cycle;Signal;HPM_P1;HPM_P2
2022/09/07 00:01:32;;;;;;;3.10;2.17;;;17.70;1.00;;;17.93;46.93;101109.75;4956485;28;20444;-73
2022/09/07 00:04:02;;;;;;;5.43;1.93;;;17.60;1.00;;;17.87;47.04;101110.72;4954807;28;21012;-73
2022/09/07 00:06:33;;;;;;;4.50;2.40;;;17.60;1.00;;;17.85;47.07;101112.91;4947809;28;20499;-73
2022/09/07 00:09:04;;;;;;;3.87;2.53;;;17.60;1.00;;;17.84;47.15;101112.06;4951372;28;20473;-73
2022/09/07 00:11:33;;;;;;;4.97;2.33;;;17.60;1.00;;;17.86;46.97;101111.84;4946733;28;20418;-73
2022/09/07 00:14:02;;;;;;;8.00;1.93;;;17.60;1.00;;;17.81;47.16;101102.44;4953162;28;20465;-73
2022/09/07 00:16:32;;;;;;;3.13;2.43;;;17.60;1.00;;;17.85;46.96;101094.56;4954321;28;20927;-73
2022/09/07 00:19:04;;;;;;;5.73;3.07;;;17.60;1.00;;;17.69;47.25;101107.13;4953994;28;20512;-73
2022/09/07 00:21:34;;;;;;;3.83;2.10;;;17.50;1.00;;;17.60;47.54;101103.13;4948696;28;20414;-72
2022/09/07 00:24:04;;;;;;;8.57;2.10;;;17.50;1.00;;;17.60;47.61;101092.19;4953076;28;20457;-73
2022/09/07 00:26:34;;;;;;;3.43;2.53;;;17.40;1.10;;;17.47;47.87;101086.97;4955310;28;20460;-73
2022/09/07 00:29:06;;;;;;;3.03;2.13;;;17.30;1.00;;;17.51;47.72;101090.88;4951959;28;20440;-73
2022/09/07 00:31:36;;;;;;;2.13;1.50;;;17.30;1.00;;;17.37;48.23;101093.06;4955152;28;20444;-73
2022/09/07 00:34:06;;;;;;;7.53;2.47;;;17.30;1.00;;;17.22;48.62;101095.47;4946867;28;20475;-73
2022/09/07 00:36:35;;;;;;;4.23;1.97;;;17.20;1.20;;;17.15;48.78;101100.22;4956730;28;20531;-73
2022/09/07 00:39:06;;;;;;;4.17;2.17;;;17.10;1.40;;;17.06;48.87;101096.19;4953639;28;21005;-73
2022/09/07 00:41:35;;;;;;;3.63;1.90;;;17.00;1.50;;;17.10;48.78;101091.06;4950584;28;20473;-73
2022/09/07 00:45:08;;;;;;;6.17;2.70;;;17.00;1.60;;;17.07;48.86;101094.31;4947796;28;20483;-73
2022/09/07 00:47:51;;;;;;;4.33;2.70;;;16.90;1.60;;;17.00;49.01;101088.13;4962360;28;20462;-75
2022/09/07 00:50:27;;;;;;;4.23;1.93;;;16.90;1.70;;;17.06;48.98;101089.91;4956081;28;20434;-72
2022/09/07 00:53:10;;;;;;;2.60;1.93;;;16.80;1.90;;;16.95;49.41;101088.84;4945167;29;20433;-72
2022/09/07 00:55:44;;;;;;;6.00;2.67;;;16.80;2.10;;;16.81;49.72;101093.72;4953961;28;20542;-72
2022/09/07 00:58:14;;;;;;;3.43;2.40;;;16.80;2.80;;;16.83;49.86;101088.03;4949174;28;20425;-73
2022/09/07 01:00:46;;;;;;;2.93;2.20;;;16.70;2.50;;;16.65;50.34;101086.25;4952013;28;20916;-73
2022/09/07 01:03:19;;;;;;;11.70;2.83;;;16.60;2.80;;;16.66;50.26;101093.38;4951975;28;20570;-74
2022/09/07 01:05:58;;;;;;;3.67;2.77;;;16.50;2.90;;;16.59;50.67;101089.94;4946793;28;20902;-74
2022/09/07 01:08:28;;;;;;;2.70;2.10;;;16.50;3.20;;;16.51;50.78;101088.34;4955708;28;20453;-73
2022/09/07 01:11:01;;;;;;;2.90;2.53;;;16.40;3.30;;;16.46;51.00;101080.03;4949490;28;20445;-74
2022/09/07 01:13:31;;;;;;;3.50;3.00;;;16.30;3.50;;;16.53;50.64;101080.75;4963472;23;20498;-72
2022/09/07 01:16:11;;;;;;;3.83;2.90;;;16.40;3.50;;;16.54;50.63;101081.59;4931949;29;20961;-72
2022/09/07 01:18:52;;;;;;;2.60;2.30;;;16.30;3.50;;;16.43;51.04;101082.41;4938379;29;20455;-72
2022/09/07 01:21:25;;;;;;;5.93;2.20;;;16.30;3.70;;;16.43;50.99;101076.94;4933930;29;20421;-72
2022/09/07 01:24:52;;;;;;;3.40;2.60;;;16.30;3.80;;;16.39;51.19;101078.47;4937662;29;20479;-72
2022/09/07 01:28:04;;;;;;;2.70;2.03;;;16.30;3.90;;;16.32;51.40;101075.84;4934526;29;20454;-72
2022/09/07 01:30:38;;;;;;;2.40;1.90;;;16.20;4.10;;;16.28;51.56;101066.47;4930032;29;20539;-71
2022/09/07 01:33:35;;;;;;;2.90;2.00;;;16.10;4.20;;;16.25;51.71;101069.69;4937379;29;20498;-73
2022/09/07 01:36:20;;;;;;;5.90;2.43;;;16.10;4.40;;;16.16;51.95;101070.25;4936890;29;20422;-73
2022/09/07 01:38:53;;;;;;;2.80;1.87;;;16.10;4.70;;;16.13;52.10;101073.44;4929225;29;20836;-73
2022/09/07 01:41:30;;;;;;;6.30;2.47;;;16.00;4.80;;;16.07;52.14;101073.31;4935478;29;20506;-71
2022/09/07 01:44:07;;;;;;;2.67;2.13;;;15.90;5.00;;;16.00;52.49;101080.78;4930866;29;20973;-71
2022/09/07 01:46:44;;;;;;;4.03;2.73;;;15.90;5.10;;;16.01;52.40;101068.81;4928857;29;20440;-73
2022/09/07 01:49:21;;;;;;;3.63;2.07;;;15.90;5.30;;;15.98;52.55;101057.50;4930759;29;20462;-72
2022/09/07 01:51:55;;;;;;;2.40;1.97;;;15.80;5.30;;;15.99;52.43;101056.44;4931431;29;20448;-71
2022/09/07 01:54:33;;;;;;;7.00;2.57;;;15.80;5.40;;;15.84;52.78;101062.34;4942113;28;20849;-72
2022/09/07 01:57:10;;;;;;;3.30;2.37;;;15.70;5.60;;;15.77;53.16;101060.78;4930622;29;20944;-72
2022/09/07 01:59:48;;;;;;;3.50;2.47;;;15.70;5.90;;;15.75;53.34;101055.53;4934543;29;20444;-73
2022/09/07 02:02:23;;;;;;;3.63;2.03;;;15.60;6.10;;;15.73;53.43;101062.31;4934735;28;20847;-73
2022/09/07 02:05:01;;;;;;;5.93;3.67;;;15.60;6.30;;;15.77;53.35;101063.50;4929625;29;20484;-72
2022/09/07 02:07:37;;;;;;;5.37;2.07;;;15.60;6.40;;;15.74;53.46;101059.34;4930314;29;20443;-71
2022/09/07 02:10:14;;;;;;;3.83;2.47;;;15.60;6.50;;;15.74;53.31;101051.16;4931161;29;20468;-71
2022/09/07 02:12:52;;;;;;;4.77;2.30;;;15.60;6.50;;;15.76;53.40;101049.03;4937105;29;20432;-72
2022/09/07 02:15:31;;;;;;;3.20;2.70;;;15.60;6.60;;;15.75;53.43;101052.81;4928540;29;20462;-72
2022/09/07 02:18:06;;;;;;;5.63;3.23;;;15.60;6.60;;;15.63;53.82;101058.25;4930146;29;20436;-72
2022/09/07 02:20:42;;;;;;;3.20;2.27;;;15.60;6.90;;;15.53;54.14;101057.13;4921654;29;20787;-72
2022/09/07 02:23:19;;;;;;;6.80;2.30;;;15.50;7.10;;;15.54;54.16;101054.16;4930126;29;20883;-72
2022/09/07 02:25:55;;;;;;;4.83;2.90;;;15.50;7.40;;;15.54;54.21;101053.34;4933339;29;20410;-72
2022/09/07 02:28:30;;;;;;;7.80;2.60;;;15.40;7.50;;;15.52;54.24;101056.28;4931638;29;20813;-72
2022/09/07 02:31:01;;;;;;;2.60;2.00;;;15.40;7.60;;;15.54;54.19;101058.81;4934214;29;20831;-72
2022/09/07 02:33:31;;;;;;;3.97;1.80;;;15.40;7.70;;;15.51;54.35;101046.44;4932183;29;20429;-72
2022/09/07 02:36:03;;;;;;;4.30;2.23;;;15.40;7.90;;;15.51;54.30;101049.19;4932131;29;20924;-72
2022/09/07 02:38:32;;;;;;;3.57;2.00;;;15.40;7.90;;;15.48;54.25;101044.16;4933162;29;20922;-72
2022/09/07 02:41:04;;;;;;;2.87;1.60;;;15.40;8.00;;;15.44;54.48;101045.66;4930355;29;20432;-72
2022/09/07 02:43:33;;;;;;;3.07;2.37;;;15.30;8.20;;;15.42;54.70;101050.53;4932865;29;20437;-72
2022/09/07 02:46:24;;;;;;;3.80;2.43;;;15.30;8.30;;;15.44;54.74;101053.03;4931525;29;20464;-71
2022/09/07 02:49:09;;;;;;;3.33;2.13;;;15.30;9.00;;;15.38;54.80;101056.66;4929384;29;20433;-72
2022/09/07 02:51:52;;;;;;;3.80;1.80;;;15.30;9.20;;;15.25;55.36;101054.13;4930560;29;20496;-71
2022/09/07 02:54:40;;;;;;;8.00;2.30;;;15.20;9.00;;;15.25;55.42;101037.75;4924655;29;20471;-71
2022/09/07 02:57:26;;;;;;;3.50;2.50;;;15.20;9.20;;;15.31;55.17;101034.94;4934415;29;20450;-73
2022/09/07 03:00:08;;;;;;;3.03;1.77;;;15.10;9.40;;;15.33;55.09;101034.72;4934166;29;20436;-73
2022/09/07 03:02:51;;;;;;;5.77;2.33;;;15.20;9.40;;;15.39;54.91;101036.53;4928113;29;20463;-72
2022/09/07 03:05:28;;;;;;;3.87;2.30;;;15.20;9.40;;;15.33;55.10;101040.16;4936727;29;20479;-72
2022/09/07 03:08:05;;;;;;;3.00;2.40;;;15.20;9.50;;;15.30;55.32;101043.38;4929040;29;20919;-71
2022/09/07 03:10:37;;;;;;;5.73;2.63;;;15.20;9.70;;;15.27;55.23;101046.53;4932024;29;20741;-73
2022/09/07 03:13:06;;;;;;;3.83;2.50;;;15.10;9.80;;;15.23;55.66;101038.81;4936802;29;20434;-71
2022/09/07 03:15:35;;;;;;;7.83;2.20;;;15.10;10.10;;;15.18;55.61;101027.78;4930291;29;20997;-73
2022/09/07 03:18:06;;;;;;;3.70;2.13;;;15.10;10.30;;;15.13;55.92;101033.06;4951311;28;20444;-72
2022/09/07 03:20:35;;;;;;;2.67;2.47;;;15.00;10.40;;;15.03;56.32;101034.66;4932304;29;20523;-72
2022/09/07 03:23:04;;;;;;;5.77;3.10;;;15.00;10.80;;;15.08;56.03;101046.56;4942221;29;20440;-72
2022/09/07 03:25:33;;;;;;;5.07;2.20;;;15.00;10.80;;;15.01;56.38;101044.94;4927079;28;20474;-71
2022/09/07 03:28:02;;;;;;;4.77;2.20;;;14.90;11.10;;;15.06;56.28;101039.66;4933889;29;20889;-74
2022/09/07 03:30:31;;;;;;;3.50;2.43;;;14.90;11.30;;;14.98;56.40;101040.81;4935441;29;20863;-70
2022/09/07 03:33:00;;;;;;;4.67;2.70;;;14.90;11.50;;;14.97;56.56;101036.41;4932795;29;20519;-71
2022/09/07 03:35:31;;;;;;;2.60;2.13;;;14.90;11.80;;;14.96;56.62;101045.63;4949428;28;20519;-73
2022/09/07 03:38:00;;;;;;;5.13;2.50;;;14.80;12.00;;;14.89;56.67;101042.16;4938841;29;20471;-71
2022/09/07 03:40:29;;;;;;;4.70;2.43;;;14.80;12.20;;;14.95;56.75;101038.53;4941722;29;20451;-71
2022/09/07 03:42:58;;;;;;;3.87;2.27;;;14.80;12.40;;;14.96;56.74;101032.00;4945712;29;20447;-71
2022/09/07 03:45:27;;;;;;;4.07;2.90;;;14.80;12.50;;;14.89;56.70;101028.53;4934724;29;20505;-71
2022/09/07 03:47:56;;;;;;;4.60;2.10;;;14.80;12.70;;;14.86;57.11;101028.19;4940938;29;20408;-71
2022/09/07 03:50:25;;;;;;;5.10;2.20;;;14.80;12.90;;;14.83;57.05;101015.81;4934432;29;20407;-71
2022/09/07 03:52:55;;;;;;;5.23;2.63;;;14.70;13.10;;;14.80;57.26;101013.56;4940568;29;20805;-71
2022/09/07 03:55:24;;;;;;;4.20;2.90;;;14.70;13.40;;;14.83;57.27;101010.38;4946902;29;20487;-71
2022/09/07 03:57:53;;;;;;;4.80;1.77;;;14.70;13.60;;;14.83;57.13;101006.81;4954178;29;20391;-73
2022/09/07 04:00:22;;;;;;;4.70;3.20;;;14.70;13.70;;;14.76;57.41;100999.53;4928727;29;20743;-71
2022/09/07 04:02:51;;;;;;;9.13;2.57;;;14.70;13.90;;;14.79;57.35;100992.81;4940628;29;20912;-72
2022/09/07 04:05:20;;;;;;;7.20;2.97;;;14.70;14.20;;;14.75;57.55;100983.44;4928150;29;20478;-72
2022/09/07 04:07:49;;;;;;;6.20;3.57;;;14.60;14.40;;;14.73;57.55;100991.00;4939820;29;20432;-71
2022/09/07 04:10:19;;;;;;;4.13;2.50;;;14.60;14.60;;;14.69;57.89;100989.78;4939907;29;20458;-71
2022/09/07 04:12:49;;;;;;;5.40;2.83;;;14.60;14.90;;;14.69;57.49;100987.06;4935154;29;20544;-71
2022/09/07 04:15:18;;;;;;;4.70;2.43;;;14.60;15.00;;;14.72;57.72;100992.06;4947559;28;20538;-72
2022/09/07 04:17:47;;;;;;;3.83;2.60;;;14.60;15.30;;;14.73;57.61;100993.72;4934443;29;20418;-71
2022/09/07 04:20:16;;;;;;;4.37;2.70;;;14.60;15.30;;;14.73;57.62;100980.94;4938128;29;20439;-71
2022/09/07 04:22:48;;;;;;;3.17;2.00;;;14.60;15.40;;;14.68;57.81;100988.97;4940869;29;20419;-71
2022/09/07 04:25:23;;;;;;;3.10;2.60;;;14.60;15.50;;;14.68;57.90;100983.50;4940494;29;20474;-71
2022/09/07 04:27:52;;;;;;;4.07;2.70;;;14.60;15.80;;;14.70;57.93;100981.41;4941083;29;20418;-71
2022/09/07 04:30:21;;;;;;;9.33;3.20;;;14.50;15.90;;;14.78;57.51;100983.81;4947223;29;20501;-72
2022/09/07 04:32:50;;;;;;;4.13;2.40;;;14.60;16.10;;;14.73;57.65;100986.38;4941011;29;20890;-71
2022/09/07 04:35:19;;;;;;;6.40;3.17;;;14.60;16.20;;;14.65;58.29;100988.59;4932732;29;20460;-72
2022/09/07 04:37:47;;;;;;;4.17;3.00;;;14.50;16.40;;;14.67;58.01;100983.72;4935976;29;20415;-71
2022/09/07 04:40:17;;;;;;;9.70;3.37;;;14.50;16.80;;;14.71;58.01;100984.97;4950209;29;20417;-72
2022/09/07 04:42:47;;;;;;;6.50;3.60;;;14.50;16.90;;;14.74;57.96;100981.78;4947937;29;20680;-72
2022/09/07 04:45:16;;;;;;;3.50;2.40;;;14.50;17.30;;;14.74;58.15;100988.06;4948780;28;20473;-72
2022/09/07 04:47:48;;;;;;;6.83;3.30;;;14.50;17.20;;;14.77;57.99;100992.19;4949115;28;20872;-72
2022/09/07 04:50:18;;;;;;;4.57;3.20;;;14.60;17.30;;;14.89;57.77;100984.94;4945568;29;20455;-71
2022/09/07 04:52:47;;;;;;;7.20;2.80;;;14.60;17.20;;;14.99;57.74;100985.25;4944495;28;20415;-71
2022/09/07 04:55:16;;;;;;;4.50;2.60;;;14.70;17.40;;;14.93;57.88;100990.75;4935490;29;20446;-71
2022/09/07 04:57:49;;;;;;;4.47;2.70;;;14.70;17.40;;;15.08;57.47;100989.31;4948976;28;20432;-71
2022/09/07 05:00:19;;;;;;;8.27;4.37;;;14.80;17.20;;;15.76;55.62;100993.63;4947977;29;20543;-71
2022/09/07 05:02:48;;;;;;;5.10;2.73;;;15.00;16.60;;;16.52;53.41;100988.94;4941642;29;20406;-73
2022/09/07 05:05:17;;;;;;;6.67;4.00;;;15.40;15.10;;;16.51;53.24;100984.53;4942089;28;20484;-72
2022/09/07 05:07:46;;;;;;;6.13;3.07;;;15.80;13.90;;;16.06;54.29;100976.13;4939745;29;20415;-73
2022/09/07 05:10:15;;;;;;;4.13;3.43;;;15.70;13.50;;;15.90;54.74;100973.25;4947962;29;20406;-72
2022/09/07 05:12:44;;;;;;;7.93;3.20;;;15.60;13.80;;;15.90;54.86;100976.81;4947437;29;20455;-72
2022/09/07 05:15:15;;;;;;;3.53;3.23;;;15.60;14.00;;;15.71;55.44;100971.66;4942977;28;20492;-72
2022/09/07 05:17:43;;;;;;;12.43;3.43;;;15.50;14.30;;;15.67;55.79;100982.22;4936954;29;20497;-73
2022/09/07 05:20:12;;;;;;;6.13;3.20;;;15.40;14.70;;;15.64;55.80;100979.94;4942698;28;20478;-72
2022/09/07 05:22:48;;;;;;;4.40;3.23;;;15.40;14.90;;;15.71;55.37;100985.31;4935343;29;20395;-72
2022/09/07 05:25:17;;;;;;;3.80;2.73;;;15.40;14.80;;;15.79;55.68;100980.34;4940327;29;20471;-72
2022/09/07 05:27:45;;;;;;;6.90;3.83;;;15.40;14.90;;;15.84;55.68;100985.94;4948153;29;20811;-73
2022/09/07 05:30:17;;;;;;;3.47;3.00;;;15.50;15.00;;;16.02;55.07;100974.91;4948638;29;20499;-72
2022/09/07 05:33:07;;;;;;;5.07;3.30;;;15.60;14.50;;;15.99;54.99;100972.66;4941880;29;20453;-72
2022/09/07 05:35:36;;;;;;;9.00;3.40;;;15.70;14.30;;;16.04;55.11;100971.94;4944331;28;20472;-72
2022/09/07 05:38:05;;;;;;;5.77;3.13;;;15.70;14.40;;;16.12;54.91;100974.31;4933529;29;20498;-72
2022/09/07 05:40:35;;;;;;;5.90;3.80;;;15.80;14.30;;;16.18;55.06;100973.38;4944353;29;20435;-72
2022/09/07 05:43:09;;;;;;;4.87;3.10;;;15.80;14.50;;;16.28;54.55;100970.91;4947550;29;20468;-72
2022/09/07 05:45:39;;;;;;;6.20;2.90;;;15.90;14.00;;;16.32;54.45;100974.81;4953584;28;20530;-71
2022/09/07 05:48:08;;;;;;;6.37;3.90;;;16.00;13.90;;;16.28;54.47;100970.91;4942430;29;20502;-71
2022/09/07 05:50:37;;;;;;;7.53;2.87;;;16.00;13.80;;;16.37;54.42;100974.09;4938436;29;20540;-72
2022/09/07 05:53:06;;;;;;;5.03;3.40;;;16.00;13.80;;;16.43;54.41;100981.34;4951548;29;20438;-71
2022/09/07 05:55:35;;;;;;;5.20;3.60;;;16.10;13.80;;;16.52;54.11;100985.38;4946273;28;20858;-72
2022/09/07 05:58:04;;;;;;;6.57;4.30;;;16.20;13.60;;;16.56;54.19;100985.72;4942903;29;20410;-70
2022/09/07 06:00:33;;;;;;;5.40;3.20;;;16.20;13.60;;;16.65;53.93;100984.34;4948601;28;20464;-72
2022/09/07 06:03:04;;;;;;;8.07;3.83;;;16.30;13.40;;;16.66;53.91;100984.06;4936301;29;20604;-73
2022/09/07 06:05:33;;;;;;;5.20;3.97;;;16.30;13.20;;;16.83;53.58;100986.91;4941316;29;20482;-71
2022/09/07 06:08:02;;;;;;;7.37;3.37;;;16.40;13.00;;;16.94;53.43;100975.13;4943202;29;20955;-72
2022/09/07 06:10:35;;;;;;;5.30;3.10;;;16.60;12.90;;;16.86;53.52;100989.97;4938900;29;20562;-73
2022/09/07 06:13:11;;;;;;;7.93;4.37;;;16.60;12.60;;;16.90;53.61;100985.69;4957384;29;20424;-71
2022/09/07 06:15:40;;;;;;;7.10;3.40;;;16.60;12.70;;;17.01;53.53;100983.16;4948173;29;20466;-71
2022/09/07 06:18:11;;;;;;;4.97;3.90;;;16.70;12.80;;;16.97;53.46;100984.72;4941632;29;20497;-71
2022/09/07 06:20:40;;;;;;;7.60;3.50;;;16.70;12.50;;;17.09;53.70;100980.06;4934367;29;20411;-72
2022/09/07 06:23:09;;;;;;;4.27;3.87;;;16.70;13.00;;;17.17;53.26;100988.72;4950688;29;20435;-71
2022/09/07 06:25:38;;;;;;;11.50;4.27;;;16.80;12.70;;;17.33;52.96;100990.66;4946973;28;20513;-72
2022/09/07 06:28:07;;;;;;;8.17;4.80;;;16.90;12.50;;;17.43;52.84;100987.28;4933010;29;20895;-73
2022/09/07 06:30:36;;;;;;;5.97;3.20;;;17.10;12.90;;;17.49;52.40;100975.34;4944754;29;20434;-73
2022/09/07 06:33:05;;;;;;;4.40;3.80;;;17.20;11.90;;;17.47;52.79;100977.53;4934762;29;20418;-73
2022/09/07 06:35:35;;;;;;;7.03;5.50;;;17.20;12.00;;;17.51;52.90;100975.13;4932683;29;20460;-72
2022/09/07 06:38:04;;;;;;;5.53;4.03;;;17.20;12.00;;;17.52;52.86;100977.63;4937536;29;20766;-72
2022/09/07 06:40:34;;;;;;;6.20;3.93;;;17.20;12.10;;;17.62;52.82;100975.06;4933088;29;20407;-72
2022/09/07 06:43:03;;;;;;;3.87;3.47;;;17.30;12.30;;;17.85;52.59;100970.56;4931284;29;20446;-72
2022/09/07 06:45:32;;;;;;;6.10;3.80;;;17.40;12.20;;;17.91;52.22;100967.63;4942818;28;20962;-72
2022/09/07 06:48:01;;;;;;;5.93;4.27;;;17.50;11.90;;;17.89;52.52;100979.94;4932275;29;20445;-71
2022/09/07 06:50:30;;;;;;;5.40;3.90;;;17.60;11.90;;;17.97;52.24;100972.13;4937973;29;20429;-72
2022/09/07 06:53:01;;;;;;;5.00;4.27;;;17.60;11.60;;;17.98;52.43;100981.16;4945062;29;20468;-72
2022/09/07 06:55:50;;;;;;;10.23;4.83;;;17.70;11.70;;;17.84;52.84;100982.56;4942285;29;20432;-73
2022/09/07 06:58:20;;;;;;;4.83;3.90;;;17.60;11.90;;;17.91;52.89;100977.78;4947843;29;20436;-71
2022/09/07 07:00:48;;;;;;;6.07;4.37;;;17.60;12.20;;;17.98;52.70;100975.69;4944868;29;21015;-73
2022/09/07 07:03:18;;;;;;;9.03;3.77;;;17.60;12.10;;;18.00;52.58;100971.63;4951772;28;20419;-72
2022/09/07 07:05:52;;;;;;;16.23;5.13;;;17.80;11.90;;;18.10;52.64;100960.03;4938516;29;20437;-72
2022/09/07 07:08:25;;;;;;;11.20;4.80;;;17.80;12.00;;;18.04;52.89;100950.06;4945753;28;20436;-72
2022/09/07 07:10:54;;;;;;;4.97;3.80;;;17.80;12.00;;;18.08;52.95;100956.69;4941506;29;20508;-72
2022/09/07 07:13:23;;;;;;;4.90;3.60;;;17.80;12.30;;;18.19;52.58;100942.91;4962020;23;20966;-69
2022/09/07 07:15:52;;;;;;;10.20;4.30;;;17.90;12.20;;;18.32;52.22;100949.94;4951373;28;20500;-71
2022/09/07 07:18:21;;;;;;;7.30;3.83;;;18.00;12.10;;;18.39;52.15;100947.88;4932038;29;20448;-70
2022/09/07 07:20:50;;;;;;;7.10;4.60;;;18.00;11.90;;;18.34;52.53;100953.25;4929158;29;20445;-71
2022/09/07 07:23:19;;;;;;;5.10;4.33;;;18.00;12.20;;;18.32;52.77;100949.09;4934819;29;20800;-70
2022/09/07 07:25:49;;;;;;;5.33;4.47;;;18.00;12.30;;;18.16;53.49;100950.78;4961680;23;20466;-76
2022/09/07 07:28:18;;;;;;;5.37;4.03;;;18.00;12.60;;;18.08;53.20;100945.72;4940113;29;20500;-73
2022/09/07 07:31:07;;;;;;;7.67;4.70;;;17.90;12.40;;;18.08;53.72;100937.53;4939964;29;20576;-73
2022/09/07 07:33:41;;;;;;;7.60;4.23;;;17.90;12.90;;;18.28;53.39;100928.78;4941583;28;20483;-72
2022/09/07 07:36:13;;;;;;;5.77;4.30;;;18.00;13.50;;;18.48;52.95;100938.13;4925082;29;20439;-73
2022/09/07 07:38:44;;;;;;;7.63;4.43;;;18.10;13.00;;;18.57;52.82;100949.50;4919574;29;20417;-74
2022/09/07 07:41:33;;;;;;;7.67;5.43;;;18.20;12.80;;;18.75;52.57;100948.34;4921390;29;20785;-73
2022/09/07 07:44:22;;;;;;;5.73;4.43;;;18.40;12.70;;;19.03;51.93;100950.88;4921663;29;20445;-74
2022/09/07 07:46:51;;;;;;;6.37;4.47;;;18.60;12.50;;;19.29;51.50;100961.06;4916991;29;20999;-73
2022/09/07 07:49:21;;;;;;;9.03;4.47;;;18.80;12.00;;;19.35;51.63;100960.06;4928122;29;20447;-73
2022/09/07 07:51:49;;;;;;;6.20;4.00;;;19.00;11.90;;;19.61;51.05;100952.06;4903444;29;20450;-72
2022/09/07 07:54:38;;;;;;;6.53;5.20;;;19.20;11.60;;;19.75;50.91;100945.91;4915869;29;20465;-72
2022/09/07 07:57:09;;;;;;;6.13;5.20;;;19.30;11.10;;;20.00;50.21;100952.69;4924476;29;20537;-73
2022/09/07 07:59:38;;;;;;;6.47;4.70;;;19.60;11.00;;;20.03;50.29;100953.00;4918507;29;20452;-74
2022/09/07 08:02:14;;;;;;;12.10;4.70;;;19.60;10.80;;;20.15;50.02;100939.91;4922509;29;21096;-72
2022/09/07 08:04:44;;;;;;;6.67;5.10;;;19.70;11.10;;;20.01;50.49;100944.19;4924722;29;21024;-73
2022/09/07 08:07:14;;;;;;;6.00;5.00;;;19.70;10.70;;;19.90;50.87;100936.97;4925767;29;20451;-73
2022/09/07 08:09:45;;;;;;;13.90;6.40;;;19.70;11.00;;;19.84;51.44;100938.03;4921806;29;20859;-73
2022/09/07 08:12:18;;;;;;;7.10;5.77;;;19.60;11.30;;;19.89;51.35;100941.66;4924127;29;20423;-73
2022/09/07 08:14:48;;;;;;;14.20;6.50;;;19.60;11.50;;;20.04;51.06;100943.69;4917477;29;20465;-72
2022/09/07 08:17:18;;;;;;;8.27;5.17;;;19.70;11.30;;;20.23;50.85;100944.09;4927296;29;20448;-73
2022/09/07 08:19:47;;;;;;;7.13;5.40;;;19.70;11.60;;;20.11;51.16;100938.78;4929318;29;20450;-72
2022/09/07 08:22:15;;;;;;;6.43;5.70;;;19.80;11.40;;;20.33;50.96;100944.97;4919246;29;20441;-72
2022/09/07 08:24:44;;;;;;;10.27;5.47;;;20.00;11.30;;;20.35;50.98;100945.56;4914716;29;20472;-74
2022/09/07 08:27:17;;;;;;;13.93;5.93;;;20.00;11.00;;;20.33;50.75;100953.22;4915996;29;20499;-74
2022/09/07 08:29:46;;;;;;;10.30;6.23;;;20.10;11.10;;;20.60;50.43;100950.38;4920892;29;20441;-73
2022/09/07 08:32:15;;;;;;;6.40;5.80;;;20.20;11.10;;;20.67;50.58;100947.41;4915860;29;20983;-73
2022/09/07 08:34:44;;;;;;;8.97;5.17;;;20.30;11.10;;;20.78;50.02;100943.56;4915896;29;20516;-72
2022/09/07 08:37:13;;;;;;;7.30;5.60;;;20.40;10.80;;;20.68;50.70;100943.53;4919938;29;20419;-73
2022/09/07 08:39:42;;;;;;;8.53;6.50;;;20.40;10.70;;;20.78;50.97;100944.41;4913884;29;20442;-73
2022/09/07 08:42:45;;;;;;;8.17;6.10;;;20.40;11.40;;;20.82;50.45;100944.69;4915319;29;20466;-73
2022/09/07 08:45:25;;;;;;;10.33;6.40;;;20.50;11.20;;;20.84;50.39;100945.25;4910875;29;21023;-72
2022/09/07 08:47:55;;;;;;;5.73;5.23;;;20.40;11.00;;;21.03;50.64;100935.44;4911525;29;20512;-72
2022/09/07 08:50:32;;;;;;;18.07;6.40;;;20.60;11.30;;;21.13;50.26;100930.00;4919170;29;20673;-72
2022/09/07 08:53:12;;;;;;;6.40;5.70;;;20.70;10.80;;;21.20;50.13;100924.25;4918334;29;20883;-73
2022/09/07 08:55:57;;;;;;;6.40;5.40;;;20.90;10.90;;;21.40;50.19;100917.91;4915042;29;20846;-73
2022/09/07 08:58:43;;;;;;;7.87;6.20;;;21.10;10.90;;;21.52;49.29;100916.56;4917174;29;20473;-73
2022/09/07 09:01:19;;;;;;;9.80;5.90;;;21.20;10.40;;;21.40;50.01;100915.16;4919667;29;20952;-74
2022/09/07 09:04:13;;;;;;;7.57;6.00;;;21.10;10.30;;;21.52;49.42;100916.56;4919423;29;20464;-74
2022/09/07 09:07:03;;;;;;;9.07;6.17;;;21.10;10.30;;;21.76;49.24;100916.84;4918675;29;20453;-72
2022/09/07 09:09:54;;;;;;;8.70;5.97;;;21.30;10.50;;;21.93;49.27;100909.16;4911799;29;20461;-73
2022/09/07 09:12:36;;;;;;;6.43;5.57;;;21.50;10.40;;;22.01;48.84;100914.13;4914355;29;20477;-72
2022/09/07 09:15:21;;;;;;;10.20;6.80;;;21.60;10.00;;;21.93;48.74;100911.06;4914955;29;20469;-72
2022/09/07 09:18:02;;;;;;;8.80;6.67;;;21.60;9.30;;;21.82;49.21;100913.00;4914550;29;20433;-73
2022/09/07 09:20:41;;;;;;;7.10;5.90;;;21.60;9.30;;;21.96;48.98;100905.03;4914703;29;20883;-73
2022/09/07 09:23:14;;;;;;;7.47;6.77;;;21.60;9.40;;;22.18;48.33;100910.22;4907459;29;20837;-72
2022/09/07 09:25:52;;;;;;;7.20;5.97;;;21.80;9.30;;;22.28;48.39;100919.28;4906666;29;20480;-74
2022/09/07 09:28:22;;;;;;;8.60;5.87;;;21.90;9.20;;;22.60;48.28;100913.44;4902449;29;20509;-73
2022/09/07 09:30:56;;;;;;;6.33;5.73;;;22.00;9.20;;;23.04;47.21;100912.72;4905000;29;20457;-73
2022/09/07 09:33:28;;;;;;;8.00;6.10;;;22.30;8.90;;;23.42;46.54;100908.31;4907839;29;20498;-72
2022/09/07 09:36:02;;;;;;;8.57;7.63;;;22.70;8.30;;;23.34;46.57;100909.75;4908370;29;20468;-73
2022/09/07 09:38:35;;;;;;;10.17;6.60;;;22.80;7.50;;;23.44;46.10;100923.47;4904984;29;20441;-73
2022/09/07 09:41:07;;;;;;;6.43;5.73;;;23.00;7.40;;;23.33;46.44;100911.66;4906620;29;20450;-73
2022/09/07 09:43:44;;;;;;;13.20;6.60;;;22.90;7.10;;;23.41;46.26;100910.25;4904542;29;20461;-74
2022/09/07 09:46:22;;;;;;;10.20;6.77;;;22.90;7.30;;;23.46;46.42;100893.69;4903053;29;20480;-74
2022/09/07 09:48:56;;;;;;;7.20;6.13;;;23.00;7.30;;;23.33;46.58;100897.06;4905529;29;20482;-73
2022/09/07 09:51:29;;;;;;;9.07;6.53;;;23.00;7.10;;;23.05;46.92;100892.25;4903524;29;20958;-74
2022/09/07 09:54:27;;;;;;;8.77;6.00;;;22.80;6.80;;;23.20;46.58;100897.69;4904128;29;20533;-73
2022/09/07 09:56:56;;;;;;;7.63;6.33;;;22.90;6.80;;;23.13;47.16;100892.50;4904696;29;20445;-73
2022/09/07 09:59:35;;;;;;;8.67;6.30;;;22.80;7.30;;;23.52;46.54;100894.47;4901790;29;20854;-73
2022/09/07 10:02:32;;;;;;;10.50;8.40;;;23.00;7.30;;;23.49;46.59;100886.75;4907391;29;20445;-73
2022/09/07 10:05:28;;;;;;;12.83;8.10;;;23.10;7.30;;;23.75;45.85;100889.03;4910104;29;20462;-73
2022/09/07 10:07:57;;;;;;;8.20;6.20;;;23.20;6.50;;;23.97;45.79;100882.16;4915897;29;20495;-72
2022/09/07 10:10:28;;;;;;;8.33;7.53;;;23.50;6.60;;;24.11;45.48;100883.13;4910948;29;20435;-73
2022/09/07 10:12:57;;;;;;;8.30;7.00;;;23.70;6.10;;;23.79;46.07;100881.78;4911253;29;20497;-73
2022/09/07 10:15:35;;;;;;;7.77;6.90;;;23.60;6.00;;;24.11;45.47;100883.97;4912739;29;20461;-74
2022/09/07 10:18:25;;;;;;;9.93;6.20;;;23.70;6.00;;;24.09;45.65;100872.38;4916489;29;20438;-74
2022/09/07 10:21:11;;;;;;;13.40;8.67;;;23.70;5.90;;;24.38;45.57;100874.31;4911283;29;20970;-74
2022/09/07 10:23:40;;;;;;;12.47;7.13;;;23.70;6.30;;;24.60;45.27;100864.34;4907846;29;20442;-72
2022/09/07 10:26:32;;;;;;;9.63;6.63;;;24.00;6.00;;;24.71;44.62;100855.91;4903523;29;20917;-74
2022/09/07 10:29:29;;;;;;;8.33;7.03;;;24.10;5.50;;;25.16;43.92;100860.84;4907421;29;21041;-74
2022/09/07 10:32:18;;;;;;;9.53;7.60;;;24.60;4.90;;;24.86;43.95;100866.78;4904644;29;20465;-74
2022/09/07 10:35:06;;;;;;;10.90;6.73;;;24.50;4.50;;;25.16;44.17;100855.31;4905208;29;20477;-73
2022/09/07 10:37:51;;;;;;;8.40;6.87;;;24.60;4.80;;;25.18;44.19;100860.53;4903271;29;20462;-74
2022/09/07 10:40:33;;;;;;;10.40;6.63;;;24.70;4.80;;;25.33;44.52;100860.28;4904111;29;20472;-73
2022/09/07 10:43:28;;;;;;;9.60;6.93;;;24.70;5.10;;;25.53;44.30;100857.19;4905397;29;20458;-74
2022/09/07 10:46:36;;;;;;;9.90;7.00;;;24.90;5.20;;;25.70;44.13;100856.69;4904642;29;20477;-73